sensor_id;sensor_type;location;lat;lon;timestamp;P1;durP1;ratioP1;P2;durP2;ratioP2
8881;SDS011;4477;48.736;9.176;2023-04-06T00:00:38;17.37;;;14.20;;
8881;SDS011;4477;48.736;9.176;2023-04-06T00:03:05;15.10;;;12.73;;
8881;SDS011;4477;48.736;9.176;2023-04-06T00:05:33;16.27;;;13.43;;
8881;SDS011;4477;48.736;9.176;2023-04-06T00:08:00;17.13;;;14.10;;
8881;SDS011;4477;48.736;9.176;2023-04-06T00:10:27;18.87;;;13.87;;
8881;SDS011;4477;48.736;9.176;2023-04-06T00:12:54;15.67;;;13.37;;
8881;SDS011;4477;48.736;9.176;2023-04-06T00:15:24;15.20;;;13.37;;
8881;SDS011;4477;48.736;9.176;2023-04-06T00:17:51;16.67;;;13.03;;
8881;SDS011;4477;48.736;9.176;2023-04-06T00:20:18;17.00;;;14.27;;
8881;SDS011;4477;48.736;9.176;2023-04-06T00:22:45;15.87;;;14.07;;
8881;SDS011;4477;48.736;9.176;2023-04-06T00:25:13;16.97;;;13.80;;
8881;SDS011;4477;48.736;9.176;2023-04-06T00:27:40;17.77;;;14.33;;
8881;SDS011;4477;48.736;9.176;2023-04-06T00:30:08;16.43;;;13.40;;
8881;SDS011;4477;48.736;9.176;2023-04-06T00:32:36;16.27;;;14.10;;
8881;SDS011;4477;48.736;9.176;2023-04-06T00:35:04;18.37;;;14.03;;
8881;SDS011;4477;48.736;9.176;2023-04-06T00:37:32;16.07;;;13.37;;
8881;SDS011;4477;48.736;9.176;2023-04-06T00:39:59;17.30;;;14.43;;
8881;SDS011;4477;48.736;9.176;2023-04-06T00:42:27;19.00;;;14.10;;
8881;SDS011;4477;48.736;9.176;2023-04-06T00:44:55;17.97;;;14.33;;
8881;SDS011;4477;48.736;9.176;2023-04-06T00:47:23;16.33;;;14.27;;
8881;SDS011;4477;48.736;9.176;2023-04-06T00:49:52;19.90;;;14.53;;
8881;SDS011;4477;48.736;9.176;2023-04-06T00:52:19;16.13;;;14.43;;
8881;SDS011;4477;48.736;9.176;2023-04-06T00:54:47;17.17;;;14.43;;
8881;SDS011;4477;48.736;9.176;2023-04-06T00:57:14;17.73;;;14.90;;
8881;SDS011;4477;48.736;9.176;2023-04-06T00:59:41;17.97;;;15.30;;
8881;SDS011;4477;48.736;9.176;2023-04-06T01:02:09;17.00;;;14.47;;
8881;SDS011;4477;48.736;9.176;2023-04-06T01:04:36;21.17;;;16.53;;
8881;SDS011;4477;48.736;9.176;2023-04-06T01:07:05;17.47;;;15.10;;
8881;SDS011;4477;48.736;9.176;2023-04-06T01:09:32;19.23;;;15.43;;
8881;SDS011;4477;48.736;9.176;2023-04-06T01:11:59;18.50;;;15.17;;
8881;SDS011;4477;48.736;9.176;2023-04-06T01:14:27;20.20;;;15.77;;
8881;SDS011;4477;48.736;9.176;2023-04-06T01:16:57;18.20;;;15.83;;
8881;SDS011;4477;48.736;9.176;2023-04-06T01:19:24;21.37;;;15.60;;
8881;SDS011;4477;48.736;9.176;2023-04-06T01:21:52;20.60;;;15.63;;
8881;SDS011;4477;48.736;9.176;2023-04-06T01:24:20;19.87;;;15.70;;
8881;SDS011;4477;48.736;9.176;2023-04-06T01:26:48;17.17;;;14.97;;
8881;SDS011;4477;48.736;9.176;2023-04-06T01:29:15;19.60;;;16.33;;
8881;SDS011;4477;48.736;9.176;2023-04-06T01:31:42;22.07;;;15.53;;
8881;SDS011;4477;48.736;9.176;2023-04-06T01:34:10;19.57;;;16.17;;
8881;SDS011;4477;48.736;9.176;2023-04-06T01:36:37;22.47;;;16.37;;
8881;SDS011;4477;48.736;9.176;2023-04-06T01:39:04;20.87;;;17.30;;
8881;SDS011;4477;48.736;9.176;2023-04-06T01:41:33;22.97;;;17.40;;
8881;SDS011;4477;48.736;9.176;2023-04-06T01:44:00;20.23;;;16.10;;
8881;SDS011;4477;48.736;9.176;2023-04-06T01:46:28;18.40;;;15.50;;
8881;SDS011;4477;48.736;9.176;2023-04-06T01:48:55;21.77;;;16.50;;
8881;SDS011;4477;48.736;9.176;2023-04-06T01:51:22;21.43;;;15.57;;
8881;SDS011;4477;48.736;9.176;2023-04-06T01:53:50;19.47;;;15.57;;
8881;SDS011;4477;48.736;9.176;2023-04-06T01:56:18;19.90;;;16.23;;
8881;SDS011;4477;48.736;9.176;2023-04-06T01:58:46;22.47;;;17.17;;
8881;SDS011;4477;48.736;9.176;2023-04-06T02:01:13;21.17;;;17.47;;
8881;SDS011;4477;48.736;9.176;2023-04-06T02:03:40;18.80;;;16.73;;
8881;SDS011;4477;48.736;9.176;2023-04-06T02:06:08;22.47;;;16.97;;
8881;SDS011;4477;48.736;9.176;2023-04-06T02:08:35;22.63;;;17.43;;
8881;SDS011;4477;48.736;9.176;2023-04-06T02:11:02;22.33;;;17.83;;
8881;SDS011;4477;48.736;9.176;2023-04-06T02:13:29;21.93;;;17.10;;
8881;SDS011;4477;48.736;9.176;2023-04-06T02:15:58;23.00;;;18.07;;
8881;SDS011;4477;48.736;9.176;2023-04-06T02:18:26;24.33;;;18.33;;
8881;SDS011;4477;48.736;9.176;2023-04-06T02:20:53;21.17;;;17.23;;
8881;SDS011;4477;48.736;9.176;2023-04-06T02:23:21;22.10;;;17.53;;
8881;SDS011;4477;48.736;9.176;2023-04-06T02:25:48;23.20;;;18.90;;
8881;SDS011;4477;48.736;9.176;2023-04-06T02:28:15;25.33;;;18.97;;
8881;SDS011;4477;48.736;9.176;2023-04-06T02:30:42;21.03;;;18.43;;
8881;SDS011;4477;48.736;9.176;2023-04-06T02:33:11;23.00;;;19.50;;
8881;SDS011;4477;48.736;9.176;2023-04-06T02:35:38;21.37;;;17.33;;
8881;SDS011;4477;48.736;9.176;2023-04-06T02:38:06;23.10;;;18.97;;
8881;SDS011;4477;48.736;9.176;2023-04-06T02:40:33;22.03;;;18.53;;
8881;SDS011;4477;48.736;9.176;2023-04-06T02:43:00;21.33;;;18.37;;
8881;SDS011;4477;48.736;9.176;2023-04-06T02:45:27;20.57;;;17.13;;
8881;SDS011;4477;48.736;9.176;2023-04-06T02:47:54;22.53;;;18.37;;
8881;SDS011;4477;48.736;9.176;2023-04-06T02:50:23;22.47;;;18.77;;
8881;SDS011;4477;48.736;9.176;2023-04-06T02:52:51;21.53;;;17.80;;
8881;SDS011;4477;48.736;9.176;2023-04-06T02:55:18;23.90;;;18.73;;
8881;SDS011;4477;48.736;9.176;2023-04-06T02:57:45;23.53;;;18.03;;
8881;SDS011;4477;48.736;9.176;2023-04-06T03:00:12;24.30;;;18.77;;
8881;SDS011;4477;48.736;9.176;2023-04-06T03:02:40;22.67;;;18.93;;
8881;SDS011;4477;48.736;9.176;2023-04-06T03:05:07;22.73;;;17.87;;
8881;SDS011;4477;48.736;9.176;2023-04-06T03:07:36;22.00;;;18.63;;
8881;SDS011;4477;48.736;9.176;2023-04-06T03:10:03;23.60;;;18.63;;
8881;SDS011;4477;48.736;9.176;2023-04-06T03:12:31;25.80;;;19.37;;
8881;SDS011;4477;48.736;9.176;2023-04-06T03:14:58;24.80;;;18.33;;
8881;SDS011;4477;48.736;9.176;2023-04-06T03:17:25;25.20;;;18.30;;
8881;SDS011;4477;48.736;9.176;2023-04-06T03:19:52;20.03;;;17.03;;
8881;SDS011;4477;48.736;9.176;2023-04-06T03:22:19;23.17;;;18.07;;
8881;SDS011;4477;48.736;9.176;2023-04-06T03:24:48;22.37;;;17.93;;
8881;SDS011;4477;48.736;9.176;2023-04-06T03:27:15;22.80;;;19.37;;
8881;SDS011;4477;48.736;9.176;2023-04-06T03:29:42;21.73;;;17.97;;
8881;SDS011;4477;48.736;9.176;2023-04-06T03:32:10;21.00;;;17.87;;
8881;SDS011;4477;48.736;9.176;2023-04-06T03:34:37;22.23;;;17.87;;
8881;SDS011;4477;48.736;9.176;2023-04-06T03:37:04;24.97;;;19.10;;
8881;SDS011;4477;48.736;9.176;2023-04-06T03:39:31;22.90;;;18.83;;
8881;SDS011;4477;48.736;9.176;2023-04-06T03:42:00;26.07;;;18.13;;
8881;SDS011;4477;48.736;9.176;2023-04-06T03:44:27;22.00;;;17.93;;
8881;SDS011;4477;48.736;9.176;2023-04-06T03:46:54;23.07;;;18.90;;
8881;SDS011;4477;48.736;9.176;2023-04-06T03:49:22;21.00;;;17.73;;
8881;SDS011;4477;48.736;9.176;2023-04-06T03:51:49;23.13;;;18.17;;
8881;SDS011;4477;48.736;9.176;2023-04-06T03:54:16;22.77;;;17.93;;
8881;SDS011;4477;48.736;9.176;2023-04-06T03:56:43;28.90;;;19.87;;
8881;SDS011;4477;48.736;9.176;2023-04-06T03:59:12;24.37;;;18.27;;
8881;SDS011;4477;48.736;9.176;2023-04-06T04:01:40;26.43;;;19.13;;
8881;SDS011;4477;48.736;9.176;2023-04-06T04:04:07;25.23;;;19.67;;
8881;SDS011;4477;48.736;9.176;2023-04-06T04:06:34;29.07;;;20.70;;
8881;SDS011;4477;48.736;9.176;2023-04-06T04:09:02;26.83;;;20.53;;
8881;SDS011;4477;48.736;9.176;2023-04-06T04:11:29;30.20;;;20.97;;
8881;SDS011;4477;48.736;9.176;2023-04-06T04:13:56;26.13;;;20.63;;
8881;SDS011;4477;48.736;9.176;2023-04-06T04:16:25;24.77;;;19.27;;
8881;SDS011;4477;48.736;9.176;2023-04-06T04:18:52;23.30;;;19.10;;
8881;SDS011;4477;48.736;9.176;2023-04-06T04:21:19;21.27;;;18.43;;
8881;SDS011;4477;48.736;9.176;2023-04-06T04:23:46;23.67;;;18.57;;
8881;SDS011;4477;48.736;9.176;2023-04-06T04:26:14;25.40;;;19.10;;
8881;SDS011;4477;48.736;9.176;2023-04-06T04:28:41;22.93;;;18.17;;
8881;SDS011;4477;48.736;9.176;2023-04-06T04:31:08;23.93;;;17.67;;
8881;SDS011;4477;48.736;9.176;2023-04-06T04:33:37;25.10;;;18.30;;
8881;SDS011;4477;48.736;9.176;2023-04-06T04:36:04;20.60;;;18.33;;
8881;SDS011;4477;48.736;9.176;2023-04-06T04:38:31;19.60;;;17.07;;
8881;SDS011;4477;48.736;9.176;2023-04-06T04:40:58;22.63;;;18.93;;
8881;SDS011;4477;48.736;9.176;2023-04-06T04:43:26;28.53;;;19.93;;
8881;SDS011;4477;48.736;9.176;2023-04-06T04:45:53;24.03;;;18.87;;
8881;SDS011;4477;48.736;9.176;2023-04-06T04:48:20;24.43;;;19.13;;
8881;SDS011;4477;48.736;9.176;2023-04-06T04:50:48;23.73;;;18.97;;
8881;SDS011;4477;48.736;9.176;2023-04-06T04:53:16;25.63;;;18.47;;
8881;SDS011;4477;48.736;9.176;2023-04-06T04:55:43;23.90;;;19.50;;
8881;SDS011;4477;48.736;9.176;2023-04-06T04:58:10;23.23;;;18.47;;
8881;SDS011;4477;48.736;9.176;2023-04-06T05:00:41;24.63;;;19.30;;
8881;SDS011;4477;48.736;9.176;2023-04-06T05:03:08;24.23;;;18.30;;
8881;SDS011;4477;48.736;9.176;2023-04-06T05:05:36;23.97;;;18.43;;
8881;SDS011;4477;48.736;9.176;2023-04-06T05:08:05;22.13;;;18.60;;
8881;SDS011;4477;48.736;9.176;2023-04-06T05:10:32;20.53;;;17.83;;
8881;SDS011;4477;48.736;9.176;2023-04-06T05:12:59;22.73;;;18.23;;
8881;SDS011;4477;48.736;9.176;2023-04-06T05:15:26;20.85;;;18.00;;
8881;SDS011;4477;48.736;9.176;2023-04-06T05:17:53;21.37;;;18.10;;
8881;SDS011;4477;48.736;9.176;2023-04-06T05:20:21;20.10;;;17.87;;
8881;SDS011;4477;48.736;9.176;2023-04-06T05:22:48;23.57;;;18.50;;
8881;SDS011;4477;48.736;9.176;2023-04-06T05:25:16;20.33;;;16.17;;
8881;SDS011;4477;48.736;9.176;2023-04-06T05:27:44;20.77;;;17.23;;
8881;SDS011;4477;48.736;9.176;2023-04-06T05:30:11;18.17;;;16.17;;
8881;SDS011;4477;48.736;9.176;2023-04-06T05:32:38;18.57;;;16.67;;
8881;SDS011;4477;48.736;9.176;2023-04-06T05:35:06;19.63;;;17.53;;
8881;SDS011;4477;48.736;9.176;2023-04-06T05:37:33;21.37;;;16.43;;
8881;SDS011;4477;48.736;9.176;2023-04-06T05:40:00;17.53;;;15.70;;
8881;SDS011;4477;48.736;9.176;2023-04-06T05:42:28;17.70;;;15.80;;
8881;SDS011;4477;48.736;9.176;2023-04-06T05:45:03;19.77;;;15.23;;
8881;SDS011;4477;48.736;9.176;2023-04-06T05:47:30;17.43;;;15.63;;
8881;SDS011;4477;48.736;9.176;2023-04-06T05:49:57;17.23;;;15.53;;
8881;SDS011;4477;48.736;9.176;2023-04-06T05:52:25;18.43;;;15.73;;
8881;SDS011;4477;48.736;9.176;2023-04-06T05:54:52;17.43;;;15.60;;
8881;SDS011;4477;48.736;9.176;2023-04-06T05:57:19;20.73;;;16.47;;
8881;SDS011;4477;48.736;9.176;2023-04-06T05:59:48;39.97;;;30.30;;
8881;SDS011;4477;48.736;9.176;2023-04-06T06:02:15;32.50;;;25.87;;
8881;SDS011;4477;48.736;9.176;2023-04-06T06:04:42;18.73;;;16.80;;
8881;SDS011;4477;48.736;9.176;2023-04-06T06:07:10;14.03;;;12.73;;
8881;SDS011;4477;48.736;9.176;2023-04-06T06:09:38;15.97;;;12.23;;
8881;SDS011;4477;48.736;9.176;2023-04-06T06:12:05;12.27;;;10.97;;
8881;SDS011;4477;48.736;9.176;2023-04-06T06:14:33;12.27;;;10.80;;
8881;SDS011;4477;48.736;9.176;2023-04-06T06:17:01;11.30;;;10.20;;
8881;SDS011;4477;48.736;9.176;2023-04-06T06:19:28;11.33;;;9.40;;
8881;SDS011;4477;48.736;9.176;2023-04-06T06:21:56;12.80;;;10.53;;
8881;SDS011;4477;48.736;9.176;2023-04-06T06:24:23;11.27;;;10.17;;
8881;SDS011;4477;48.736;9.176;2023-04-06T06:26:50;12.60;;;10.47;;
8881;SDS011;4477;48.736;9.176;2023-04-06T06:29:18;13.67;;;10.33;;
8881;SDS011;4477;48.736;9.176;2023-04-06T06:31:45;12.00;;;10.53;;
8881;SDS011;4477;48.736;9.176;2023-04-06T06:34:13;14.43;;;11.40;;
8881;SDS011;4477;48.736;9.176;2023-04-06T06:36:41;13.50;;;10.97;;
8881;SDS011;4477;48.736;9.176;2023-04-06T06:39:08;15.97;;;12.00;;
8881;SDS011;4477;48.736;9.176;2023-04-06T06:41:35;14.17;;;10.43;;
8881;SDS011;4477;48.736;9.176;2023-04-06T06:44:02;15.53;;;10.93;;
8881;SDS011;4477;48.736;9.176;2023-04-06T06:46:30;14.10;;;11.40;;
8881;SDS011;4477;48.736;9.176;2023-04-06T06:48:58;15.63;;;11.77;;
8881;SDS011;4477;48.736;9.176;2023-04-06T06:51:26;18.33;;;11.53;;
8881;SDS011;4477;48.736;9.176;2023-04-06T06:53:54;16.97;;;11.77;;
8881;SDS011;4477;48.736;9.176;2023-04-06T06:56:21;14.27;;;10.87;;
8881;SDS011;4477;48.736;9.176;2023-04-06T06:58:48;15.80;;;11.20;;
8881;SDS011;4477;48.736;9.176;2023-04-06T07:01:15;16.90;;;10.87;;
8881;SDS011;4477;48.736;9.176;2023-04-06T07:03:42;18.57;;;11.20;;
8881;SDS011;4477;48.736;9.176;2023-04-06T07:06:10;14.13;;;10.57;;
8881;SDS011;4477;48.736;9.176;2023-04-06T07:08:38;18.30;;;10.93;;
8881;SDS011;4477;48.736;9.176;2023-04-06T07:11:05;16.00;;;11.47;;
8881;SDS011;4477;48.736;9.176;2023-04-06T07:13:33;20.87;;;11.43;;
8881;SDS011;4477;48.736;9.176;2023-04-06T07:16:00;16.13;;;10.97;;
8881;SDS011;4477;48.736;9.176;2023-04-06T07:18:27;17.27;;;10.87;;
8881;SDS011;4477;48.736;9.176;2023-04-06T07:20:55;17.60;;;12.17;;
8881;SDS011;4477;48.736;9.176;2023-04-06T07:23:22;16.37;;;10.87;;
8881;SDS011;4477;48.736;9.176;2023-04-06T07:25:50;12.27;;;10.97;;
8881;SDS011;4477;48.736;9.176;2023-04-06T07:28:19;15.87;;;11.87;;
8881;SDS011;4477;48.736;9.176;2023-04-06T07:30:47;17.60;;;11.10;;
8881;SDS011;4477;48.736;9.176;2023-04-06T07:33:14;15.87;;;10.90;;
8881;SDS011;4477;48.736;9.176;2023-04-06T07:35:41;16.00;;;11.23;;
8881;SDS011;4477;48.736;9.176;2023-04-06T07:38:09;13.83;;;11.43;;
8881;SDS011;4477;48.736;9.176;2023-04-06T07:40:36;15.97;;;11.77;;
8881;SDS011;4477;48.736;9.176;2023-04-06T07:43:05;15.57;;;11.63;;
8881;SDS011;4477;48.736;9.176;2023-04-06T07:45:32;15.73;;;11.40;;
8881;SDS011;4477;48.736;9.176;2023-04-06T07:48:00;18.27;;;10.73;;
8881;SDS011;4477;48.736;9.176;2023-04-06T07:50:27;14.07;;;11.20;;
8881;SDS011;4477;48.736;9.176;2023-04-06T07:52:54;14.90;;;11.07;;
8881;SDS011;4477;48.736;9.176;2023-04-06T07:55:22;11.77;;;10.07;;
8881;SDS011;4477;48.736;9.176;2023-04-06T07:57:50;14.00;;;12.00;;
8881;SDS011;4477;48.736;9.176;2023-04-06T08:00:18;14.60;;;11.33;;
8881;SDS011;4477;48.736;9.176;2023-04-06T08:02:46;14.93;;;11.27;;
8881;SDS011;4477;48.736;9.176;2023-04-06T08:05:13;18.17;;;11.43;;
8881;SDS011;4477;48.736;9.176;2023-04-06T08:07:41;18.27;;;12.00;;
8881;SDS011;4477;48.736;9.176;2023-04-06T08:10:08;14.40;;;11.37;;
8881;SDS011;4477;48.736;9.176;2023-04-06T08:12:35;19.10;;;11.53;;
8881;SDS011;4477;48.736;9.176;2023-04-06T08:15:06;13.43;;;11.47;;
8881;SDS011;4477;48.736;9.176;2023-04-06T08:17:35;15.63;;;11.73;;
8881;SDS011;4477;48.736;9.176;2023-04-06T08:20:02;18.70;;;11.13;;
8881;SDS011;4477;48.736;9.176;2023-04-06T08:22:29;16.80;;;12.07;;
8881;SDS011;4477;48.736;9.176;2023-04-06T08:24:56;16.60;;;11.43;;
8881;SDS011;4477;48.736;9.176;2023-04-06T08:27:24;13.03;;;11.57;;
8881;SDS011;4477;48.736;9.176;2023-04-06T08:29:51;15.33;;;11.10;;
8881;SDS011;4477;48.736;9.176;2023-04-06T08:32:18;13.60;;;10.47;;
8881;SDS011;4477;48.736;9.176;2023-04-06T08:34:47;17.80;;;11.20;;
8881;SDS011;4477;48.736;9.176;2023-04-06T08:37:14;16.53;;;11.30;;
8881;SDS011;4477;48.736;9.176;2023-04-06T08:39:41;13.93;;;11.07;;
8881;SDS011;4477;48.736;9.176;2023-04-06T08:42:10;15.13;;;10.73;;
8881;SDS011;4477;48.736;9.176;2023-04-06T08:44:39;11.47;;;10.27;;
8881;SDS011;4477;48.736;9.176;2023-04-06T08:47:07;12.60;;;10.30;;
8881;SDS011;4477;48.736;9.176;2023-04-06T08:49:34;11.63;;;9.90;;
8881;SDS011;4477;48.736;9.176;2023-04-06T08:52:06;12.07;;;10.83;;
8881;SDS011;4477;48.736;9.176;2023-04-06T08:54:34;13.50;;;10.33;;
8881;SDS011;4477;48.736;9.176;2023-04-06T08:57:01;11.73;;;10.17;;
8881;SDS011;4477;48.736;9.176;2023-04-06T08:59:29;12.47;;;10.17;;
8881;SDS011;4477;48.736;9.176;2023-04-06T09:01:56;12.40;;;11.10;;
8881;SDS011;4477;48.736;9.176;2023-04-06T09:04:23;12.13;;;10.40;;
8881;SDS011;4477;48.736;9.176;2023-04-06T09:06:51;12.73;;;9.87;;
8881;SDS011;4477;48.736;9.176;2023-04-06T09:09:19;12.10;;;10.40;;
8881;SDS011;4477;48.736;9.176;2023-04-06T09:11:48;12.90;;;10.57;;
8881;SDS011;4477;48.736;9.176;2023-04-06T09:14:16;13.60;;;10.17;;
8881;SDS011;4477;48.736;9.176;2023-04-06T09:16:44;13.27;;;11.07;;
8881;SDS011;4477;48.736;9.176;2023-04-06T09:19:11;10.40;;;9.13;;
8881;SDS011;4477;48.736;9.176;2023-04-06T09:21:39;11.73;;;10.03;;
8881;SDS011;4477;48.736;9.176;2023-04-06T09:24:06;13.30;;;10.03;;
8881;SDS011;4477;48.736;9.176;2023-04-06T09:26:45;11.70;;;10.27;;
8881;SDS011;4477;48.736;9.176;2023-04-06T09:29:21;9.07;;;8.17;;
8881;SDS011;4477;48.736;9.176;2023-04-06T09:31:51;10.80;;;9.70;;
8881;SDS011;4477;48.736;9.176;2023-04-06T09:34:21;11.23;;;9.10;;
8881;SDS011;4477;48.736;9.176;2023-04-06T09:36:49;11.97;;;9.40;;
8881;SDS011;4477;48.736;9.176;2023-04-06T09:39:19;11.70;;;9.20;;
8881;SDS011;4477;48.736;9.176;2023-04-06T09:41:49;13.10;;;9.20;;
8881;SDS011;4477;48.736;9.176;2023-04-06T09:44:17;8.97;;;7.80;;
8881;SDS011;4477;48.736;9.176;2023-04-06T09:46:44;8.90;;;8.10;;
8881;SDS011;4477;48.736;9.176;2023-04-06T09:49:13;8.77;;;7.90;;
8881;SDS011;4477;48.736;9.176;2023-04-06T09:51:41;9.83;;;8.73;;
8881;SDS011;4477;48.736;9.176;2023-04-06T09:54:11;9.20;;;8.30;;
8881;SDS011;4477;48.736;9.176;2023-04-06T09:56:43;8.80;;;7.90;;
8881;SDS011;4477;48.736;9.176;2023-04-06T09:59:14;10.40;;;8.90;;
8881;SDS011;4477;48.736;9.176;2023-04-06T10:01:43;9.60;;;8.70;;
8881;SDS011;4477;48.736;9.176;2023-04-06T10:04:14;9.67;;;8.40;;
8881;SDS011;4477;48.736;9.176;2023-04-06T10:06:44;9.17;;;8.27;;
8881;SDS011;4477;48.736;9.176;2023-04-06T10:09:17;8.63;;;7.83;;
8881;SDS011;4477;48.736;9.176;2023-04-06T10:11:44;8.87;;;7.50;;
8881;SDS011;4477;48.736;9.176;2023-04-06T10:14:13;8.33;;;7.53;;
8881;SDS011;4477;48.736;9.176;2023-04-06T10:16:41;7.80;;;7.10;;
8881;SDS011;4477;48.736;9.176;2023-04-06T10:19:10;8.60;;;7.70;;
8881;SDS011;4477;48.736;9.176;2023-04-06T10:21:39;8.67;;;7.77;;
8881;SDS011;4477;48.736;9.176;2023-04-06T10:24:08;8.90;;;7.93;;
8881;SDS011;4477;48.736;9.176;2023-04-06T10:26:37;8.63;;;7.43;;
8881;SDS011;4477;48.736;9.176;2023-04-06T10:29:05;9.60;;;8.60;;
8881;SDS011;4477;48.736;9.176;2023-04-06T10:31:39;8.30;;;7.43;;
8881;SDS011;4477;48.736;9.176;2023-04-06T10:34:06;8.17;;;7.37;;
8881;SDS011;4477;48.736;9.176;2023-04-06T10:36:33;9.57;;;8.20;;
8881;SDS011;4477;48.736;9.176;2023-04-06T10:39:01;8.17;;;7.37;;
8881;SDS011;4477;48.736;9.176;2023-04-06T10:41:32;8.27;;;7.50;;
8881;SDS011;4477;48.736;9.176;2023-04-06T10:44:00;9.73;;;8.47;;
8881;SDS011;4477;48.736;9.176;2023-04-06T10:46:28;8.43;;;7.53;;
8881;SDS011;4477;48.736;9.176;2023-04-06T10:48:57;8.83;;;7.87;;
8881;SDS011;4477;48.736;9.176;2023-04-06T10:51:26;8.97;;;8.10;;
8881;SDS011;4477;48.736;9.176;2023-04-06T10:53:54;10.50;;;7.53;;
8881;SDS011;4477;48.736;9.176;2023-04-06T10:56:21;9.67;;;8.67;;
8881;SDS011;4477;48.736;9.176;2023-04-06T10:58:51;9.20;;;7.73;;
8881;SDS011;4477;48.736;9.176;2023-04-06T11:01:21;8.57;;;7.30;;
8881;SDS011;4477;48.736;9.176;2023-04-06T11:03:49;8.77;;;7.97;;
8881;SDS011;4477;48.736;9.176;2023-04-06T11:06:22;8.30;;;7.40;;
8881;SDS011;4477;48.736;9.176;2023-04-06T11:08:49;8.73;;;7.20;;
8881;SDS011;4477;48.736;9.176;2023-04-06T11:11:17;9.20;;;7.93;;
8881;SDS011;4477;48.736;9.176;2023-04-06T11:13:46;9.90;;;7.93;;
8881;SDS011;4477;48.736;9.176;2023-04-06T11:16:14;9.27;;;7.90;;
8881;SDS011;4477;48.736;9.176;2023-04-06T11:18:48;7.77;;;6.77;;
8881;SDS011;4477;48.736;9.176;2023-04-06T11:21:15;8.20;;;7.10;;
8881;SDS011;4477;48.736;9.176;2023-04-06T11:23:44;7.90;;;7.03;;
8881;SDS011;4477;48.736;9.176;2023-04-06T11:26:11;7.87;;;7.03;;
8881;SDS011;4477;48.736;9.176;2023-04-06T11:28:39;8.73;;;7.53;;
8881;SDS011;4477;48.736;9.176;2023-04-06T11:31:07;8.23;;;7.43;;
8881;SDS011;4477;48.736;9.176;2023-04-06T11:33:35;8.00;;;7.20;;
8881;SDS011;4477;48.736;9.176;2023-04-06T11:36:03;7.60;;;6.90;;
8881;SDS011;4477;48.736;9.176;2023-04-06T11:38:31;7.87;;;7.17;;
8881;SDS011;4477;48.736;9.176;2023-04-06T11:40:59;8.07;;;7.27;;
8881;SDS011;4477;48.736;9.176;2023-04-06T11:43:27;8.50;;;7.70;;
8881;SDS011;4477;48.736;9.176;2023-04-06T11:45:59;7.60;;;6.80;;
8881;SDS011;4477;48.736;9.176;2023-04-06T11:48:27;8.17;;;7.43;;
8881;SDS011;4477;48.736;9.176;2023-04-06T11:50:55;8.27;;;7.03;;
8881;SDS011;4477;48.736;9.176;2023-04-06T11:53:23;7.73;;;6.93;;
8881;SDS011;4477;48.736;9.176;2023-04-06T11:55:50;7.87;;;7.07;;
8881;SDS011;4477;48.736;9.176;2023-04-06T11:58:19;6.77;;;6.17;;
8881;SDS011;4477;48.736;9.176;2023-04-06T12:00:46;8.53;;;6.27;;
8881;SDS011;4477;48.736;9.176;2023-04-06T12:03:13;7.40;;;6.10;;
8881;SDS011;4477;48.736;9.176;2023-04-06T12:05:40;7.23;;;5.83;;
8881;SDS011;4477;48.736;9.176;2023-04-06T12:08:07;7.07;;;6.03;;
8881;SDS011;4477;48.736;9.176;2023-04-06T12:10:34;7.67;;;6.47;;
8881;SDS011;4477;48.736;9.176;2023-04-06T12:13:01;7.30;;;6.60;;
8881;SDS011;4477;48.736;9.176;2023-04-06T12:15:29;7.63;;;6.60;;
8881;SDS011;4477;48.736;9.176;2023-04-06T12:17:56;9.67;;;6.53;;
8881;SDS011;4477;48.736;9.176;2023-04-06T12:20:23;9.73;;;6.67;;
8881;SDS011;4477;48.736;9.176;2023-04-06T12:22:50;8.17;;;7.33;;
8881;SDS011;4477;48.736;9.176;2023-04-06T12:25:17;7.83;;;7.03;;
8881;SDS011;4477;48.736;9.176;2023-04-06T12:27:44;7.43;;;6.63;;
8881;SDS011;4477;48.736;9.176;2023-04-06T12:30:12;7.43;;;6.63;;
8881;SDS011;4477;48.736;9.176;2023-04-06T12:32:40;7.33;;;6.53;;
8881;SDS011;4477;48.736;9.176;2023-04-06T12:35:08;7.80;;;7.10;;
8881;SDS011;4477;48.736;9.176;2023-04-06T12:37:36;7.57;;;6.63;;
8881;SDS011;4477;48.736;9.176;2023-04-06T12:40:04;8.07;;;6.50;;
8881;SDS011;4477;48.736;9.176;2023-04-06T12:42:32;7.27;;;6.50;;
8881;SDS011;4477;48.736;9.176;2023-04-06T12:44:59;7.53;;;6.83;;
8881;SDS011;4477;48.736;9.176;2023-04-06T12:47:25;7.33;;;6.57;;
8881;SDS011;4477;48.736;9.176;2023-04-06T12:49:54;7.23;;;5.87;;
8881;SDS011;4477;48.736;9.176;2023-04-06T12:52:21;6.40;;;5.80;;
8881;SDS011;4477;48.736;9.176;2023-04-06T12:54:48;7.57;;;6.63;;
8881;SDS011;4477;48.736;9.176;2023-04-06T12:57:16;6.72;;;5.72;;
8881;SDS011;4477;48.736;9.176;2023-04-06T12:59:43;7.50;;;6.20;;
8881;SDS011;4477;48.736;9.176;2023-04-06T13:02:10;7.32;;;5.75;;
8881;SDS011;4477;48.736;9.176;2023-04-06T13:04:37;8.63;;;6.47;;
8881;SDS011;4477;48.736;9.176;2023-04-06T13:07:05;6.80;;;6.13;;
8881;SDS011;4477;48.736;9.176;2023-04-06T13:09:32;6.63;;;5.93;;
8881;SDS011;4477;48.736;9.176;2023-04-06T13:11:59;6.45;;;5.85;;
8881;SDS011;4477;48.736;9.176;2023-04-06T13:14:26;7.80;;;5.88;;
8881;SDS011;4477;48.736;9.176;2023-04-06T13:16:53;7.13;;;6.13;;
8881;SDS011;4477;48.736;9.176;2023-04-06T13:19:19;6.68;;;5.97;;
8881;SDS011;4477;48.736;9.176;2023-04-06T13:21:46;8.07;;;5.53;;
8881;SDS011;4477;48.736;9.176;2023-04-06T13:24:15;6.97;;;6.13;;
8881;SDS011;4477;48.736;9.176;2023-04-06T13:26:42;9.80;;;6.40;;
8881;SDS011;4477;48.736;9.176;2023-04-06T13:29:09;6.80;;;6.20;;
8881;SDS011;4477;48.736;9.176;2023-04-06T13:31:35;8.63;;;6.90;;
8881;SDS011;4477;48.736;9.176;2023-04-06T13:34:03;8.27;;;7.47;;
8881;SDS011;4477;48.736;9.176;2023-04-06T13:36:31;7.40;;;6.70;;
8881;SDS011;4477;48.736;9.176;2023-04-06T13:38:58;7.07;;;6.37;;
8881;SDS011;4477;48.736;9.176;2023-04-06T13:41:27;7.20;;;5.97;;
8881;SDS011;4477;48.736;9.176;2023-04-06T13:43:55;6.70;;;6.00;;
8881;SDS011;4477;48.736;9.176;2023-04-06T13:46:23;6.28;;;5.47;;
8881;SDS011;4477;48.736;9.176;2023-04-06T13:48:50;6.85;;;6.07;;
8881;SDS011;4477;48.736;9.176;2023-04-06T13:51:17;7.70;;;5.97;;
8881;SDS011;4477;48.736;9.176;2023-04-06T13:53:43;7.15;;;5.82;;
8881;SDS011;4477;48.736;9.176;2023-04-06T13:56:10;6.53;;;5.93;;
8881;SDS011;4477;48.736;9.176;2023-04-06T13:58:39;8.00;;;6.50;;
8881;SDS011;4477;48.736;9.176;2023-04-06T14:01:06;6.23;;;5.67;;
8881;SDS011;4477;48.736;9.176;2023-04-06T14:03:34;6.93;;;5.83;;
8881;SDS011;4477;48.736;9.176;2023-04-06T14:06:08;6.50;;;5.90;;
8881;SDS011;4477;48.736;9.176;2023-04-06T14:08:36;8.27;;;6.10;;
8881;SDS011;4477;48.736;9.176;2023-04-06T14:11:03;7.27;;;5.13;;
8881;SDS011;4477;48.736;9.176;2023-04-06T14:13:33;8.47;;;6.63;;
8881;SDS011;4477;48.736;9.176;2023-04-06T14:16:01;6.73;;;6.03;;
8881;SDS011;4477;48.736;9.176;2023-04-06T14:18:29;7.23;;;6.53;;
8881;SDS011;4477;48.736;9.176;2023-04-06T14:20:56;7.37;;;6.37;;
8881;SDS011;4477;48.736;9.176;2023-04-06T14:23:23;6.90;;;6.17;;
8881;SDS011;4477;48.736;9.176;2023-04-06T14:25:51;6.43;;;5.83;;
8881;SDS011;4477;48.736;9.176;2023-04-06T14:28:20;7.47;;;6.00;;
8881;SDS011;4477;48.736;9.176;2023-04-06T14:30:47;7.87;;;6.80;;
8881;SDS011;4477;48.736;9.176;2023-04-06T14:33:15;8.27;;;6.10;;
8881;SDS011;4477;48.736;9.176;2023-04-06T14:35:42;6.70;;;5.93;;
8881;SDS011;4477;48.736;9.176;2023-04-06T14:38:10;7.03;;;6.10;;
8881;SDS011;4477;48.736;9.176;2023-04-06T14:40:37;6.27;;;5.67;;
8881;SDS011;4477;48.736;9.176;2023-04-06T14:43:04;7.73;;;6.57;;
8881;SDS011;4477;48.736;9.176;2023-04-06T14:45:32;7.80;;;6.27;;
8881;SDS011;4477;48.736;9.176;2023-04-06T14:48:01;7.13;;;6.03;;
8881;SDS011;4477;48.736;9.176;2023-04-06T14:50:32;7.20;;;5.53;;
8881;SDS011;4477;48.736;9.176;2023-04-06T14:52:59;6.20;;;5.60;;
8881;SDS011;4477;48.736;9.176;2023-04-06T14:55:26;6.30;;;5.70;;
8881;SDS011;4477;48.736;9.176;2023-04-06T14:57:53;6.87;;;6.27;;
8881;SDS011;4477;48.736;9.176;2023-04-06T15:00:20;8.40;;;6.33;;